Time;durP1;ratioP1;P1;durP2;ratioP2;P2;SDS_P1;SDS_P2;PMS_P1;PMS_P2;Temp;Humidity;BMP_temperature;BMP_pressure;BME280_temperature;BME280_humidity;BME280_pressure;Samples;Min_cycle;Max_cycle;Signal;HPM_P1;HPM_P2
2022/07/02 00:01:19;;;;;;;1.85;1.40;;;10.50;99.90;;;;;;5014372;28;19924;-54
2022/07/02 00:03:51;;;;;;;3.05;1.98;;;10.60;99.90;;;;;;5014645;28;20055;-54
2022/07/02 00:06:21;;;;;;;2.10;1.88;;;10.50;99.90;;;;;;5012654;28;20061;-52
2022/07/02 00:08:48;;;;;;;2.22;1.38;;;10.50;99.90;;;;;;5014091;28;20095;-55
2022/07/02 00:11:15;;;;;;;11.25;1.67;;;10.50;99.90;;;;;;5014639;28;20614;-55
2022/07/02 00:13:43;;;;;;;3.58;1.50;;;10.50;99.90;;;;;;5014660;28;20613;-53
2022/07/02 00:16:10;;;;;;;1.60;1.42;;;10.50;99.90;;;;;;5014019;28;20038;-52
2022/07/02 00:18:39;;;;;;;4.85;1.70;;;10.40;99.90;;;;;;5012579;28;20215;-53
2022/07/02 00:21:07;;;;;;;2.85;1.88;;;10.40;99.90;;;;;;5013495;28;20079;-51
2022/07/02 00:23:34;;;;;;;4.07;1.80;;;10.40;99.90;;;;;;5012885;28;20069;-53
2022/07/02 00:26:17;;;;;;;2.22;1.42;;;10.40;99.90;;;;;;5013521;28;20099;-52
2022/07/02 00:28:49;;;;;;;3.38;1.17;;;10.40;99.90;;;;;;5013235;28;20045;-55
2022/07/02 00:31:16;;;;;;;2.33;1.67;;;10.40;99.90;;;;;;4996128;28;20120;-53
2022/07/02 00:33:44;;;;;;;2.50;2.03;;;10.40;99.90;;;;;;4996530;28;20701;-54
2022/07/02 00:36:21;;;;;;;2.17;1.73;;;10.40;99.90;;;;;;5013981;28;20908;-54
2022/07/02 00:38:50;;;;;;;2.90;1.55;;;10.40;99.90;;;;;;5012851;28;20148;-55
2022/07/02 00:41:20;;;;;;;1.58;1.38;;;10.30;99.90;;;;;;5012640;28;20107;-54
2022/07/02 00:43:48;;;;;;;1.80;1.70;;;10.30;99.90;;;;;;5013592;28;20487;-55
2022/07/02 00:46:17;;;;;;;6.65;1.38;;;10.30;99.90;;;;;;5012122;28;20083;-54
2022/07/02 00:48:44;;;;;;;1.73;1.60;;;10.20;99.90;;;;;;5013299;28;20046;-56
2022/07/02 00:51:10;;;;;;;;;;;10.20;99.90;;;;;;5014331;28;20044;-52
2022/07/02 00:53:37;;;;;;;3.53;1.45;;;10.20;99.90;;;;;;5013502;28;19924;-54
2022/07/02 00:56:04;;;;;;;1.55;1.40;;;10.20;99.90;;;;;;5013258;28;20830;-55
2022/07/02 00:58:31;;;;;;;;;;;10.20;99.90;;;;;;5013673;28;20053;-51
2022/07/02 01:00:59;;;;;;;2.55;1.40;;;10.20;99.90;;;;;;5013099;28;19987;-54
2022/07/02 01:03:26;;;;;;;2.03;1.83;;;10.10;99.90;;;;;;5013441;28;20054;-55
2022/07/02 01:05:55;;;;;;;1.92;1.50;;;10.10;99.90;;;;;;5013440;28;20056;-52
2022/07/02 01:11:11;;;;;;;1.92;1.75;;;10.10;99.90;;;;;;5013091;28;20107;-56
2022/07/02 01:13:39;;;;;;;2.65;1.30;;;10.10;99.90;;;;;;5012036;28;20075;-51
2022/07/02 01:16:06;;;;;;;3.10;1.55;;;10.10;99.90;;;;;;5013296;28;20042;-54
2022/07/02 01:18:34;;;;;;;2.55;1.50;;;10.00;99.90;;;;;;5012372;28;20116;-51
2022/07/02 01:21:01;;;;;;;1.67;1.58;;;10.00;99.90;;;;;;5011748;28;20069;-55
2022/07/02 01:23:28;;;;;;;;;;;10.00;99.90;;;;;;5013317;28;20057;-55
2022/07/02 01:25:55;;;;;;;1.70;1.52;;;10.00;99.90;;;;;;5013442;28;19959;-51
2022/07/02 01:28:22;;;;;;;3.83;1.20;;;10.00;99.90;;;;;;5012110;28;20037;-55
2022/07/02 01:30:50;;;;;;;3.08;1.13;;;10.00;99.90;;;;;;5013032;28;20538;-55
2022/07/02 01:33:17;;;;;;;2.67;1.40;;;10.00;99.90;;;;;;5012956;28;20120;-54
2022/07/02 01:35:44;;;;;;;2.03;1.80;;;10.00;99.90;;;;;;5013407;28;20100;-53
2022/07/02 01:38:11;;;;;;;4.28;1.40;;;9.90;99.90;;;;;;5013067;28;20714;-54
2022/07/02 01:40:37;;;;;;;2.03;1.40;;;9.90;99.90;;;;;;5012438;28;20053;-56
2022/07/02 01:43:04;;;;;;;2.90;1.42;;;9.90;99.90;;;;;;5012140;28;20087;-54
2022/07/02 01:45:31;;;;;;;;;;;9.80;99.90;;;;;;5012211;28;20056;-54
2022/07/02 01:47:58;;;;;;;1.90;1.65;;;9.80;99.90;;;;;;5012614;28;20486;-55
2022/07/02 01:50:24;;;;;;;;;;;9.80;99.90;;;;;;5013393;28;20046;-54
2022/07/02 01:52:56;;;;;;;1.70;1.60;;;9.80;99.90;;;;;;5011338;28;19921;-54
2022/07/02 01:55:24;;;;;;;1.60;1.48;;;9.80;99.90;;;;;;5012858;28;20041;-53
2022/07/02 01:57:51;;;;;;;2.05;1.52;;;9.80;99.90;;;;;;5014298;28;20049;-56
2022/07/02 02:00:18;;;;;;;1.70;1.60;;;9.80;99.90;;;;;;5016796;28;20095;-56
2022/07/02 02:02:46;;;;;;;1.98;1.38;;;9.70;99.90;;;;;;5016500;28;20095;-55
2022/07/02 02:05:13;;;;;;;1.77;1.20;;;9.70;99.90;;;;;;5017205;28;20626;-50
2022/07/02 02:07:40;;;;;;;1.48;1.38;;;9.70;99.90;;;;;;5016922;28;20111;-50
2022/07/02 02:10:07;;;;;;;;;;;9.70;99.90;;;;;;5017641;28;20034;-51
2022/07/02 02:12:33;;;;;;;2.40;1.58;;;9.70;99.90;;;;;;5016331;28;19925;-51
2022/07/02 02:15:00;;;;;;;2.60;1.23;;;9.60;99.90;;;;;;5016559;28;20065;-54
2022/07/02 02:17:27;;;;;;;;;;;9.60;99.90;;;;;;5016685;28;20459;-54
2022/07/02 02:19:54;;;;;;;1.95;1.58;;;9.60;99.90;;;;;;5014371;28;19959;-54
2022/07/02 02:22:20;;;;;;;;;;;9.60;99.90;;;;;;5013024;28;20462;-55
2022/07/02 02:24:47;;;;;;;3.80;2.00;;;9.60;99.90;;;;;;5017099;28;19935;-51
2022/07/02 02:27:14;;;;;;;3.15;1.80;;;9.60;99.90;;;;;;5017501;28;20049;-52
2022/07/02 02:29:41;;;;;;;;;;;9.50;99.90;;;;;;5017389;28;20069;-55
2022/07/02 02:32:08;;;;;;;1.75;1.60;;;9.50;99.90;;;;;;5017715;28;19925;-52
2022/07/02 02:34:35;;;;;;;2.30;1.52;;;9.50;99.90;;;;;;5017216;28;20640;-52
2022/07/02 02:37:02;;;;;;;6.45;1.83;;;9.50;99.90;;;;;;5017956;28;20090;-52
2022/07/02 02:39:29;;;;;;;;;;;9.50;99.90;;;;;;5017326;28;20080;-51
2022/07/02 02:41:55;;;;;;;3.75;1.50;;;9.50;99.90;;;;;;5017395;28;19925;-52
2022/07/02 02:44:22;;;;;;;;;;;9.50;99.90;;;;;;5017872;28;20567;-54
2022/07/02 02:46:49;;;;;;;1.63;1.52;;;9.50;99.90;;;;;;5016174;28;20419;-54
2022/07/02 02:49:16;;;;;;;;;;;9.40;99.90;;;;;;5017532;28;20049;-54
2022/07/02 02:51:43;;;;;;;1.98;1.70;;;9.40;99.90;;;;;;5017350;28;20952;-52
2022/07/02 02:54:09;;;;;;;3.13;1.40;;;9.40;99.90;;;;;;5017413;28;20049;-54
2022/07/02 02:56:36;;;;;;;;;;;9.40;99.90;;;;;;5016393;28;20045;-52
2022/07/02 02:59:03;;;;;;;3.50;2.22;;;9.40;99.90;;;;;;5016939;28;19931;-53
2022/07/02 03:01:30;;;;;;;3.13;2.08;;;9.40;99.90;;;;;;5004423;28;20053;-55
2022/07/02 03:03:58;;;;;;;4.85;1.63;;;9.40;99.90;;;;;;5011893;28;20144;-54
2022/07/02 03:06:25;;;;;;;1.73;1.60;;;9.40;99.90;;;;;;5017267;28;20061;-53
2022/07/02 03:08:52;;;;;;;1.70;1.60;;;9.40;99.90;;;;;;5016315;28;20072;-53
2022/07/02 03:11:19;;;;;;;1.77;1.67;;;9.40;99.90;;;;;;5016778;28;20053;-55
2022/07/02 03:13:45;;;;;;;2.33;1.58;;;9.40;99.90;;;;;;5016155;28;20104;-54
2022/07/02 03:16:12;;;;;;;1.58;1.38;;;9.30;99.90;;;;;;5017251;28;20049;-52
2022/07/02 03:18:39;;;;;;;2.25;1.45;;;9.30;99.90;;;;;;5014126;28;20188;-52
2022/07/02 03:21:06;;;;;;;1.45;1.35;;;9.30;99.90;;;;;;5016109;28;20037;-51
2022/07/02 03:23:33;;;;;;;;;;;9.30;99.90;;;;;;5013069;28;20459;-52
2022/07/02 03:25:59;;;;;;;1.88;1.45;;;9.30;99.90;;;;;;5016956;28;20406;-53
2022/07/02 03:28:26;;;;;;;;;;;9.30;99.90;;;;;;5016525;28;20155;-54
2022/07/02 03:30:53;;;;;;;3.22;1.90;;;9.30;99.90;;;;;;5015564;28;19935;-55
2022/07/02 03:33:20;;;;;;;;;;;9.30;99.90;;;;;;5015707;28;20049;-53
2022/07/02 03:35:46;;;;;;;3.22;1.50;;;9.20;99.90;;;;;;5015785;28;19929;-54
2022/07/02 03:38:13;;;;;;;;;;;9.20;99.90;;;;;;5017404;28;20448;-54
2022/07/02 03:40:40;;;;;;;2.17;1.38;;;9.20;99.90;;;;;;5015990;28;19925;-53
2022/07/02 03:43:07;;;;;;;;;;;9.20;99.90;;;;;;5016686;28;20106;-53
2022/07/02 03:45:34;;;;;;;1.65;1.52;;;9.20;99.90;;;;;;4997786;28;20263;-53
2022/07/02 03:48:00;;;;;;;;;;;9.20;99.90;;;;;;5015920;28;20119;-54
2022/07/02 03:50:27;;;;;;;1.63;1.45;;;9.20;99.90;;;;;;5015663;28;19983;-54
2022/07/02 03:52:54;;;;;;;;;;;9.20;99.90;;;;;;5016431;28;20287;-53
2022/07/02 03:55:23;;;;;;;1.90;1.50;;;9.10;99.90;;;;;;5016189;28;20188;-55
2022/07/02 03:57:50;;;;;;;1.92;1.67;;;9.10;99.90;;;;;;5015811;28;20050;-52
2022/07/02 04:00:17;;;;;;;1.70;1.55;;;9.20;99.90;;;;;;5016349;28;20053;-56
2022/07/02 04:02:44;;;;;;;;;;;9.20;99.90;;;;;;5015605;28;20046;-52
2022/07/02 04:05:10;;;;;;;2.15;1.58;;;9.20;99.90;;;;;;5016048;28;19925;-50
2022/07/02 04:07:37;;;;;;;2.95;1.75;;;9.20;99.90;;;;;;5015448;28;20061;-54
2022/07/02 04:10:05;;;;;;;;;;;9.30;99.90;;;;;;5016124;28;20042;-54
2022/07/02 04:12:32;;;;;;;3.15;2.17;;;9.30;99.90;;;;;;5015226;28;19925;-53
2022/07/02 04:14:59;;;;;;;;;;;9.30;99.90;;;;;;5016047;28;20041;-53
2022/07/02 04:17:26;;;;;;;1.42;1.30;;;9.30;99.90;;;;;;5015716;28;19936;-52
2022/07/02 04:19:53;;;;;;;1.63;1.52;;;9.30;99.90;;;;;;5015294;28;20049;-53
2022/07/02 04:22:20;;;;;;;2.22;1.52;;;9.30;99.90;;;;;;5013172;28;20043;-54
2022/07/02 04:24:46;;;;;;;;;;;9.30;99.90;;;;;;5014962;28;20069;-54
2022/07/02 04:27:14;;;;;;;1.75;1.63;;;9.30;99.90;;;;;;5015620;28;20322;-55
2022/07/02 04:29:41;;;;;;;1.83;1.45;;;9.30;99.90;;;;;;5014414;28;20594;-54
2022/07/02 04:32:08;;;;;;;;;;;9.30;99.90;;;;;;5015557;28;20705;-53
2022/07/02 04:34:35;;;;;;;1.60;1.48;;;9.30;99.90;;;;;;5015170;28;19933;-54
2022/07/02 04:37:01;;;;;;;;;;;9.40;99.90;;;;;;5015466;28;20053;-53
2022/07/02 04:39:28;;;;;;;2.13;1.63;;;9.30;99.90;;;;;;5015089;28;19931;-50
2022/07/02 04:41:55;;;;;;;;;;;9.40;99.90;;;;;;5014979;28;20046;-56
2022/07/02 04:44:22;;;;;;;2.10;1.92;;;9.40;99.90;;;;;;5014956;28;19921;-54
2022/07/02 04:46:49;;;;;;;;;;;9.40;99.90;;;;;;5014539;28;20042;-55
2022/07/02 04:49:16;;;;;;;4.88;2.03;;;9.50;99.90;;;;;;5014757;28;20391;-52
2022/07/02 04:51:43;;;;;;;2.70;2.20;;;9.50;99.90;;;;;;5015129;28;20730;-56
2022/07/02 04:54:10;;;;;;;2.08;1.88;;;9.60;99.90;;;;;;5014805;28;20088;-53
2022/07/02 04:56:37;;;;;;;;;;;9.60;99.90;;;;;;5014052;28;20049;-54
2022/07/02 04:59:03;;;;;;;2.38;2.00;;;9.70;99.90;;;;;;5014664;28;19925;-56
2022/07/02 05:01:30;;;;;;;;;;;9.80;99.90;;;;;;5015858;28;20136;-52
2022/07/02 05:03:57;;;;;;;2.15;1.88;;;9.80;99.90;;;;;;5012818;28;19931;-53
2022/07/02 05:06:24;;;;;;;;;;;9.90;99.90;;;;;;5015726;28;20041;-54
2022/07/02 05:08:51;;;;;;;2.05;1.70;;;9.90;99.90;;;;;;5014302;28;19925;-51
2022/07/02 05:11:19;;;;;;;4.05;2.05;;;10.00;99.90;;;;;;5015038;28;20038;-54
2022/07/02 05:13:47;;;;;;;3.35;2.20;;;10.10;99.90;;;;;;5014442;28;20048;-54
2022/07/02 05:16:14;;;;;;;3.15;2.50;;;10.10;99.90;;;;;;5013638;28;20054;-54
2022/07/02 05:18:41;;;;;;;3.35;2.22;;;10.30;99.90;;;;;;5013791;28;20123;-55
2022/07/02 05:21:07;;;;;;;;;;;10.30;99.90;;;;;;5013904;28;20037;-54
2022/07/02 05:23:34;;;;;;;2.90;2.33;;;10.40;99.90;;;;;;5012554;28;19932;-51
2022/07/02 05:26:01;;;;;;;;;;;10.50;99.90;;;;;;5012401;28;20597;-56
2022/07/02 05:28:28;;;;;;;4.80;2.35;;;10.50;99.90;;;;;;5014128;28;20014;-54
2022/07/02 05:30:55;;;;;;;2.90;2.30;;;10.60;99.90;;;;;;5013874;28;20049;-52
2022/07/02 05:33:22;;;;;;;;;;;10.70;99.90;;;;;;5014446;28;20052;-55
2022/07/02 05:35:48;;;;;;;4.10;2.30;;;10.70;99.90;;;;;;5013992;28;20396;-56
2022/07/02 05:38:15;;;;;;;2.50;2.05;;;10.80;99.90;;;;;;5012922;28;20092;-52
2022/07/02 05:40:42;;;;;;;;;;;10.90;99.90;;;;;;5014742;28;20042;-53
2022/07/02 05:43:09;;;;;;;3.47;2.70;;;11.00;99.90;;;;;;5013142;28;20022;-56
2022/07/02 05:45:36;;;;;;;3.42;2.58;;;11.00;99.90;;;;;;5014587;28;20049;-56
2022/07/02 05:48:08;;;;;;;3.85;2.30;;;11.10;99.90;;;;;;5012603;28;20059;-53
2022/07/02 05:50:34;;;;;;;;;;;11.20;99.90;;;;;;5014802;28;20080;-55
2022/07/02 05:53:01;;;;;;;6.80;2.78;;;11.30;99.90;;;;;;5013393;28;19936;-55
2022/07/02 05:55:28;;;;;;;;;;;11.40;99.90;;;;;;5014345;28;20045;-54
2022/07/02 05:57:54;;;;;;;2.75;2.55;;;11.40;99.90;;;;;;5012294;28;19925;-55
2022/07/02 06:00:21;;;;;;;;;;;11.50;99.90;;;;;;5014510;28;20056;-54
2022/07/02 06:02:48;;;;;;;3.80;3.33;;;11.60;99.90;;;;;;5012508;28;19995;-52
2022/07/02 06:08:00;;;;;;;3.08;2.78;;;11.80;99.90;;;;;;5014445;28;20041;-53
2022/07/02 06:10:27;;;;;;;;;;;11.90;99.90;;;;;;5014670;28;20049;-52
2022/07/02 06:12:54;;;;;;;2.75;2.47;;;12.00;99.90;;;;;;5014247;28;19929;-52
2022/07/02 06:15:21;;;;;;;;;;;12.10;99.90;;;;;;5014375;28;20111;-52
2022/07/02 06:17:48;;;;;;;3.00;2.70;;;12.30;99.90;;;;;;5013706;28;19925;-53
2022/07/02 06:20:16;;;;;;;2.88;2.55;;;12.30;99.90;;;;;;5013192;28;20676;-52
2022/07/02 06:22:49;;;;;;;4.50;2.50;;;12.40;99.90;;;;;;5014275;28;20706;-50
2022/07/02 06:25:16;;;;;;;2.80;2.55;;;12.50;99.90;;;;;;5008426;28;20526;-52
2022/07/02 06:27:42;;;;;;;;;;;12.60;99.90;;;;;;5014580;28;20033;-54
2022/07/02 06:30:10;;;;;;;5.47;3.00;;;12.70;99.90;;;;;;5013190;28;20430;-53
2022/07/02 06:32:37;;;;;;;8.80;3.20;;;12.80;99.90;;;;;;5013290;28;20512;-53
2022/07/02 06:35:05;;;;;;;7.93;2.47;;;12.90;99.90;;;;;;5013837;28;20524;-50
2022/07/02 06:37:32;;;;;;;7.07;2.47;;;13.00;99.90;;;;;;5013599;28;20461;-53
2022/07/02 06:39:59;;;;;;;4.22;2.90;;;13.20;99.90;;;;;;5013501;28;20048;-53
2022/07/02 06:42:28;;;;;;;;;;;13.30;99.90;;;;;;5013991;28;20045;-52
2022/07/02 06:44:58;;;;;;;5.10;2.63;;;13.40;99.90;;;;;;5013694;28;20032;-52
2022/07/02 06:47:26;;;;;;;4.43;3.17;;;13.50;99.90;;;;;;5014802;28;20045;-52
2022/07/02 06:49:55;;;;;;;8.05;2.72;;;13.60;99.90;;;;;;5017036;28;20057;-54
2022/07/02 06:52:23;;;;;;;5.30;3.05;;;13.70;99.90;;;;;;5017443;28;20397;-54
2022/07/02 06:54:50;;;;;;;6.93;4.10;;;13.90;99.90;;;;;;5015309;28;20049;-49
2022/07/02 06:57:17;;;;;;;7.15;5.03;;;14.00;99.90;;;;;;5017663;28;20522;-54
2022/07/02 06:59:51;;;;;;;4.53;3.92;;;14.10;99.90;;;;;;5016907;28;20065;-51
2022/07/02 07:02:18;;;;;;;7.53;3.25;;;14.20;99.90;;;;;;5017063;28;20045;-52
2022/07/02 07:04:45;;;;;;;4.63;4.15;;;14.30;99.90;;;;;;5014846;28;20046;-51
2022/07/02 07:07:12;;;;;;;;;;;14.40;99.90;;;;;;5017169;28;20049;-52
2022/07/02 07:09:39;;;;;;;3.60;3.30;;;14.60;99.90;;;;;;5016562;28;20319;-58
2022/07/02 07:12:06;;;;;;;4.88;4.32;;;14.70;99.90;;;;;;5015133;28;20042;-52
2022/07/02 07:14:34;;;;;;;10.43;3.78;;;14.90;99.90;;;;;;5017073;28;20038;-53
2022/07/02 07:17:02;;;;;;;4.32;3.90;;;15.00;99.90;;;;;;5015038;28;20041;-53
2022/07/02 07:19:29;;;;;;;3.65;3.30;;;15.10;99.90;;;;;;5016947;28;20048;-52
2022/07/02 07:21:56;;;;;;;4.68;3.10;;;15.20;99.90;;;;;;5016109;28;20045;-53
2022/07/02 07:24:23;;;;;;;7.63;3.13;;;15.30;99.90;;;;;;5015343;28;20049;-51
2022/07/02 07:26:50;;;;;;;3.78;3.15;;;15.50;99.90;;;;;;5014708;28;20053;-52
2022/07/02 07:29:17;;;;;;;5.43;2.40;;;15.60;99.90;;;;;;5016010;28;20045;-52
2022/07/02 07:31:43;;;;;;;4.53;3.50;;;15.70;99.90;;;;;;5016029;28;21013;-51
2022/07/02 07:34:11;;;;;;;2.70;2.50;;;15.70;99.90;;;;;;5016572;28;20045;-52
2022/07/02 07:36:38;;;;;;;3.22;2.78;;;15.70;99.90;;;;;;5016982;28;20115;-52
2022/07/02 07:39:05;;;;;;;3.67;2.60;;;15.80;99.90;;;;;;5016039;28;20037;-51
2022/07/02 07:41:33;;;;;;;3.40;2.78;;;16.00;99.90;;;;;;5016315;28;20076;-53
2022/07/02 07:44:00;;;;;;;2.67;2.47;;;16.00;99.90;;;;;;5015725;28;20049;-53
2022/07/02 07:46:28;;;;;;;2.80;2.42;;;16.20;99.90;;;;;;5015133;28;20818;-51
2022/07/02 07:48:56;;;;;;;2.70;2.50;;;16.20;99.90;;;;;;5014876;28;20484;-53
2022/07/02 07:51:23;;;;;;;2.38;2.05;;;16.30;99.90;;;;;;5016341;28;20045;-53
2022/07/02 07:53:50;;;;;;;2.10;1.95;;;16.30;99.90;;;;;;5015866;28;20060;-52
2022/07/02 07:56:18;;;;;;;2.20;2.00;;;16.40;99.90;;;;;;5014617;28;20053;-53
2022/07/02 07:58:45;;;;;;;3.20;2.58;;;16.50;99.90;;;;;;5014054;28;20045;-53
2022/07/02 08:01:12;;;;;;;3.78;2.60;;;16.60;99.90;;;;;;5015865;28;20060;-55
2022/07/02 08:03:39;;;;;;;2.28;2.08;;;16.60;99.90;;;;;;5014268;28;20042;-53
2022/07/02 08:06:06;;;;;;;1.98;1.85;;;16.60;99.90;;;;;;5015733;28;20500;-51
2022/07/02 08:08:33;;;;;;;7.75;2.63;;;16.60;99.90;;;;;;5015510;28;20056;-54
2022/07/02 08:11:00;;;;;;;8.15;2.58;;;16.70;99.90;;;;;;5015385;28;20120;-50
2022/07/02 08:13:27;;;;;;;2.65;2.45;;;16.70;99.90;;;;;;5013862;28;20132;-48
2022/07/02 08:15:54;;;;;;;2.88;2.13;;;16.70;99.90;;;;;;5015710;28;20045;-52
2022/07/02 08:18:21;;;;;;;2.05;1.95;;;16.80;99.90;;;;;;5013622;28;20042;-54
2022/07/02 08:20:48;;;;;;;3.17;2.38;;;16.80;99.90;;;;;;5016081;28;20056;-49
2022/07/02 08:23:15;;;;;;;5.40;2.15;;;17.00;99.90;;;;;;5015184;28;20120;-53
2022/07/02 08:25:42;;;;;;;2.83;2.33;;;17.20;99.90;;;;;;5013577;28;20037;-56
2022/07/02 08:28:08;;;;;;;4.20;1.92;;;17.40;99.90;;;;;;5013343;28;20044;-52
2022/07/02 08:30:35;;;;;;;3.72;2.28;;;17.70;99.90;;;;;;5014964;28;20059;-53
2022/07/02 08:33:03;;;;;;;3.17;2.58;;;18.10;99.90;;;;;;5015149;28;20045;-49
2022/07/02 08:35:30;;;;;;;2.00;1.80;;;18.40;99.90;;;;;;5015207;28;20045;-49
2022/07/02 08:37:57;;;;;;;5.28;1.95;;;18.60;99.90;;;;;;5015061;28;20574;-50
2022/07/02 08:40:26;;;;;;;6.57;2.58;;;19.00;99.90;;;;;;5015334;28;20617;-51
2022/07/02 08:42:53;;;;;;;3.25;2.00;;;19.30;99.90;;;;;;5014655;28;20566;-52
2022/07/02 08:45:23;;;;;;;2.35;2.15;;;19.50;99.90;;;;;;5014710;28;20045;-55
2022/07/02 08:47:54;;;;;;;4.68;2.67;;;19.80;99.90;;;;;;5015548;28;20041;-53
2022/07/02 08:50:23;;;;;;;5.00;1.92;;;20.00;99.90;;;;;;5013488;28;20463;-52
2022/07/02 08:52:51;;;;;;;2.67;2.38;;;20.00;99.90;;;;;;5013497;28;20045;-48
2022/07/02 08:55:20;;;;;;;3.65;2.20;;;20.00;99.90;;;;;;5014827;28;20886;-54
2022/07/02 08:57:47;;;;;;;5.47;2.10;;;20.10;99.90;;;;;;5014522;28;20252;-53
2022/07/02 09:00:17;;;;;;;2.10;1.77;;;20.20;99.90;;;;;;5013781;28;20723;-53
2022/07/02 09:02:45;;;;;;;4.35;2.10;;;20.40;99.90;;;;;;5014568;28;20400;-52
2022/07/02 09:05:14;;;;;;;2.65;2.15;;;20.60;99.90;;;;;;5014997;28;20422;-54
2022/07/02 09:07:41;;;;;;;6.47;2.20;;;20.90;99.90;;;;;;5014109;28;20083;-52
2022/07/02 09:10:10;;;;;;;2.00;1.90;;;21.10;99.90;;;;;;5014847;28;20123;-53
2022/07/02 09:12:39;;;;;;;2.95;1.52;;;21.40;99.90;;;;;;5012622;28;20107;-49
2022/07/02 09:15:07;;;;;;;2.80;1.67;;;21.60;99.90;;;;;;5014974;28;20531;-53
2022/07/02 09:17:33;;;;;;;6.28;1.90;;;21.80;99.90;;;;;;5014034;28;20046;-58
2022/07/02 09:20:00;;;;;;;4.43;2.17;;;22.00;99.90;;;;;;5014767;28;20721;-52
2022/07/02 09:22:37;;;;;;;2.70;1.83;;;22.10;99.90;;;;;;5013717;28;20136;-54
2022/07/02 09:25:08;;;;;;;2.40;1.95;;;22.30;99.90;;;;;;5013215;28;20052;-52
2022/07/02 09:27:34;;;;;;;6.10;1.85;;;22.40;99.90;;;;;;5012575;28;20037;-50
2022/07/02 09:30:02;;;;;;;3.22;1.80;;;22.60;99.90;;;;;;5012861;28;20050;-51
2022/07/02 09:32:46;;;;;;;4.45;2.20;;;22.70;99.90;;;;;;5014144;28;20045;-52
2022/07/02 09:35:20;;;;;;;2.88;2.00;;;22.60;99.90;;;;;;5013813;28;20541;-59
2022/07/02 09:37:49;;;;;;;4.03;1.92;;;22.60;99.90;;;;;;5014582;28;20056;-56
2022/07/02 09:40:17;;;;;;;4.38;2.80;;;22.70;99.90;;;;;;5013844;28;20848;-65
2022/07/02 09:42:48;;;;;;;2.65;2.45;;;22.90;99.90;;;;;;5013789;28;20053;-63
2022/07/02 09:45:16;;;;;;;3.60;2.47;;;23.10;99.90;;;;;;5013870;28;20073;-65
2022/07/02 09:47:50;;;;;;;6.03;2.80;;;23.30;99.90;;;;;;5014490;28;20056;-62
2022/07/02 09:50:21;;;;;;;4.55;2.00;;;23.30;99.90;;;;;;5012848;28;20049;-63
2022/07/02 09:52:53;;;;;;;3.38;2.42;;;23.40;99.90;;;;;;5014050;28;20068;-65
2022/07/02 09:55:26;;;;;;;5.22;2.38;;;23.40;99.90;;;;;;5013967;28;20072;-64
2022/07/02 09:57:54;;;;;;;3.20;2.90;;;23.60;99.90;;;;;;5014705;28;20730;-63
2022/07/02 10:00:22;;;;;;;3.13;2.83;;;23.60;99.90;;;;;;5013766;28;20038;-63
2022/07/02 10:02:54;;;;;;;3.88;2.20;;;23.60;99.90;;;;;;5012382;28;20144;-62
2022/07/02 10:05:27;;;;;;;2.08;1.88;;;23.70;99.90;;;;;;5014099;28;20129;-63
2022/07/02 10:07:56;;;;;;;3.20;2.30;;;23.70;99.90;;;;;;5013654;28;20053;-64
2022/07/02 10:10:31;;;;;;;3.63;2.08;;;23.90;99.90;;;;;;5014425;28;20052;-63
2022/07/02 10:12:58;;;;;;;1.60;1.50;;;23.90;99.90;;;;;;5013425;28;20048;-61
2022/07/02 10:15:29;;;;;;;2.33;1.50;;;23.80;99.90;;;;;;5014234;28;20682;-64
2022/07/02 10:17:57;;;;;;;3.40;1.60;;;23.80;99.90;;;;;;5013492;28;20049;-63
2022/07/02 10:20:24;;;;;;;2.33;1.40;;;23.90;99.90;;;;;;5016502;28;20057;-60
2022/07/02 10:22:51;;;;;;;2.72;1.55;;;24.00;99.90;;;;;;5018164;28;20060;-62
2022/07/02 10:25:19;;;;;;;1.77;1.23;;;24.00;99.90;;;;;;5000334;28;20077;-63
2022/07/02 10:27:47;;;;;;;3.92;1.58;;;24.00;99.90;;;;;;5017078;28;20041;-61
2022/07/02 10:30:21;;;;;;;2.85;1.33;;;24.00;99.90;;;;;;5015729;28;20041;-61
2022/07/02 10:33:26;;;;;;;2.42;1.00;;;24.10;99.90;;;;;;5017699;28;20519;-61
2022/07/02 10:35:54;;;;;;;1.20;1.10;;;24.20;99.90;;;;;;4997696;28;20530;-63
2022/07/02 10:38:35;;;;;;;1.42;0.90;;;24.20;99.90;;;;;;5014436;28;20837;-63
2022/07/02 10:41:02;;;;;;;1.38;1.17;;;24.30;99.90;;;;;;5004468;28;20129;-64
2022/07/02 10:43:37;;;;;;;1.02;1.02;;;24.40;99.90;;;;;;5015359;28;20048;-60
2022/07/02 10:46:05;;;;;;;1.38;1.23;;;24.40;99.90;;;;;;5017204;28;20072;-63
2022/07/02 10:48:34;;;;;;;4.70;1.25;;;24.50;99.90;;;;;;5017286;28;20045;-63
2022/07/02 10:51:02;;;;;;;1.05;0.70;;;24.50;99.90;;;;;;5015567;28;20114;-61
2022/07/02 10:53:29;;;;;;;3.88;1.17;;;24.60;99.90;;;;;;5016182;28;20051;-60
2022/07/02 10:55:58;;;;;;;1.30;1.20;;;24.70;99.50;;;;;;5015464;28;20148;-63
2022/07/02 10:58:28;;;;;;;2.58;1.35;;;24.70;99.90;;;;;;5017198;28;20049;-63
2022/07/02 11:00:55;;;;;;;1.48;1.08;;;24.80;99.90;;;;;;5016850;28;20037;-63
2022/07/02 11:03:25;;;;;;;1.67;1.10;;;24.70;99.90;;;;;;5016955;28;20049;-63
2022/07/02 11:06:14;;;;;;;3.60;0.90;;;24.70;97.70;;;;;;5015970;28;20045;-64
2022/07/02 11:08:49;;;;;;;0.70;0.70;;;24.80;99.90;;;;;;5016700;28;20133;-60
2022/07/02 11:11:16;;;;;;;1.17;0.90;;;24.90;99.90;;;;;;4999344;28;20045;-62
2022/07/02 11:14:04;;;;;;;1.10;1.00;;;24.90;94.10;;;;;;5014995;28;20046;-62
2022/07/02 11:16:37;;;;;;;0.95;0.90;;;25.00;94.30;;;;;;5016925;28;20096;-63
2022/07/02 11:19:12;;;;;;;3.13;0.90;;;25.00;95.30;;;;;;5015705;28;20128;-64
2022/07/02 11:21:40;;;;;;;1.55;1.10;;;25.10;98.90;;;;;;5017120;28;20049;-61
2022/07/02 11:24:07;;;;;;;1.33;0.80;;;25.20;96.00;;;;;;5015691;28;20448;-63
2022/07/02 11:26:35;;;;;;;2.88;0.90;;;25.10;92.00;;;;;;5015828;28;20541;-62
2022/07/02 11:29:03;;;;;;;1.45;0.73;;;25.10;95.30;;;;;;5015512;28;20069;-63
2022/07/02 11:31:34;;;;;;;1.08;0.80;;;25.10;92.80;;;;;;5015348;28;20045;-64
2022/07/02 11:34:02;;;;;;;0.68;0.68;;;25.10;97.10;;;;;;5016213;28;20045;-60
2022/07/02 11:36:29;;;;;;;1.48;0.85;;;25.20;97.70;;;;;;5016382;28;20049;-63
2022/07/02 11:38:56;;;;;;;0.93;0.93;;;25.30;98.60;;;;;;5015166;28;20148;-62
2022/07/02 11:41:31;;;;;;;0.70;0.70;;;25.30;95.50;;;;;;5015032;28;20443;-63
2022/07/02 11:43:59;;;;;;;0.65;0.63;;;25.30;98.40;;;;;;5014839;28;20053;-62
2022/07/02 11:46:27;;;;;;;3.20;1.13;;;25.40;98.20;;;;;;5016297;28;20045;-63
2022/07/02 11:48:57;;;;;;;1.38;0.60;;;25.50;91.30;;;;;;5015091;28;20053;-61
2022/07/02 11:51:24;;;;;;;5.45;1.05;;;25.40;95.50;;;;;;5013614;28;20045;-62
2022/07/02 11:54:00;;;;;;;3.05;1.00;;;25.50;99.10;;;;;;5014967;28;20045;-64
2022/07/02 11:56:28;;;;;;;1.63;0.95;;;25.50;99.20;;;;;;5016251;28;20077;-61
2022/07/02 11:58:56;;;;;;;2.50;0.60;;;25.60;98.30;;;;;;5014497;28;20038;-64
2022/07/02 12:01:33;;;;;;;2.95;1.00;;;25.70;97.30;;;;;;5016713;28;21082;-65
2022/07/02 12:04:02;;;;;;;1.58;0.85;;;25.80;99.90;;;;;;5016041;28;20117;-62
2022/07/02 12:06:35;;;;;;;0.75;0.75;;;25.80;94.90;;;;;;5014711;28;20046;-64
2022/07/02 12:09:08;;;;;;;0.98;0.68;;;25.70;95.00;;;;;;5014338;28;20041;-63
2022/07/02 12:11:36;;;;;;;2.92;0.80;;;25.70;96.30;;;;;;5014338;28;20144;-64
2022/07/02 12:14:05;;;;;;;0.77;0.68;;;25.80;96.50;;;;;;4997354;28;20042;-62
2022/07/02 12:16:34;;;;;;;1.13;0.57;;;25.90;96.90;;;;;;5015519;28;20049;-65
2022/07/02 12:19:08;;;;;;;1.45;0.80;;;26.00;93.50;;;;;;5014713;28;20332;-66
2022/07/02 12:21:36;;;;;;;1.05;1.05;;;26.00;92.20;;;;;;5015497;28;20750;-65
2022/07/02 12:24:22;;;;;;;1.52;1.25;;;26.10;91.50;;;;;;5013869;28;20045;-64
2022/07/02 12:27:04;;;;;;;3.03;0.60;;;26.10;92.80;;;;;;5016196;28;20045;-64
2022/07/02 12:32:22;;;;;;;1.55;1.00;;;26.40;97.40;;;;;;5014457;28;20037;-65
2022/07/02 12:34:55;;;;;;;0.90;0.80;;;26.50;92.00;;;;;;5013897;28;20183;-66
2022/07/02 12:37:23;;;;;;;3.15;0.70;;;26.50;94.40;;;;;;5015610;28;20037;-64
2022/07/02 12:39:57;;;;;;;1.25;0.88;;;26.70;93.40;;;;;;5015500;28;20053;-64
2022/07/02 12:42:24;;;;;;;0.98;0.90;;;26.80;81.90;;;;;;5013879;28;20037;-66
2022/07/02 12:44:58;;;;;;;0.60;0.60;;;26.80;81.30;;;;;;5015674;28;20491;-65
2022/07/02 12:47:34;;;;;;;2.30;0.98;;;26.80;87.00;;;;;;5015060;28;20045;-66
2022/07/02 12:50:21;;;;;;;0.85;0.55;;;27.00;85.80;;;;;;5014029;28;20152;-66
2022/07/02 12:52:49;;;;;;;0.82;0.82;;;27.10;79.10;;;;;;5012497;28;20037;-68
2022/07/02 12:55:42;;;;;;;0.70;0.70;;;27.10;77.90;;;;;;5015507;28;20041;-65
2022/07/02 12:58:11;;;;;;;1.60;0.90;;;27.20;81.40;;;;;;5014187;28;20048;-67
2022/07/02 13:00:40;;;;;;;0.65;0.65;;;27.20;77.70;;;;;;5015633;28;20056;-66
2022/07/02 13:03:11;;;;;;;1.45;0.80;;;27.20;75.60;;;;;;5015157;28;20145;-67
2022/07/02 13:05:42;;;;;;;3.78;1.02;;;27.40;79.80;;;;;;5013693;28;20051;-65
2022/07/02 13:08:08;;;;;;;2.88;0.82;;;27.40;77.20;;;;;;5014435;28;20083;-65
2022/07/02 13:10:37;;;;;;;0.73;0.73;;;27.40;70.70;;;;;;5013768;28;20056;-63
2022/07/02 13:13:04;;;;;;;1.42;0.88;;;27.40;69.60;;;;;;5014054;28;20052;-65
2022/07/02 13:15:31;;;;;;;1.85;0.80;;;27.50;73.60;;;;;;5014811;28;20049;-66